Time;durP1;ratioP1;P1;durP2;ratioP2;P2;SDS_P1;SDS_P2;PMS_P1;PMS_P2;Temp;Humidity;BMP_temperature;BMP_pressure;BME280_temperature;BME280_humidity;BME280_pressure;Samples;Min_cycle;Max_cycle;Signal;HPM_P1;HPM_P2
2022/10/28 00:00:21;;;;;;;16.70;5.00;;;20.50;99.90;;;;;;5004006;28;20033;-76
2022/10/28 00:02:46;;;;;;;17.90;4.93;;;20.50;99.90;;;;;;5015590;28;20026;-75
2022/10/28 00:05:12;;;;;;;16.38;5.07;;;20.50;99.90;;;;;;5005542;28;20033;-75
2022/10/28 00:07:38;;;;;;;15.40;5.53;;;20.50;99.90;;;;;;4999651;28;20037;-75
2022/10/28 00:10:06;;;;;;;22.20;5.78;;;20.50;99.90;;;;;;4998802;28;20092;-75
2022/10/28 00:12:36;;;;;;;14.73;4.55;;;20.50;99.90;;;;;;4997981;28;20042;-75
2022/10/28 00:15:02;;;;;;;19.40;4.50;;;20.50;99.90;;;;;;5000321;28;20125;-75
2022/10/28 00:17:28;;;;;;;18.67;4.95;;;20.60;99.90;;;;;;4999449;28;20053;-75
2022/10/28 00:19:53;;;;;;;14.07;4.95;;;20.60;99.90;;;;;;5002908;28;20543;-75
2022/10/28 00:22:19;;;;;;;17.23;4.82;;;20.60;99.90;;;;;;5007895;28;20057;-75
2022/10/28 00:24:44;;;;;;;14.50;4.53;;;20.60;99.90;;;;;;5007172;28;20026;-75
2022/10/28 00:27:15;;;;;;;13.70;4.25;;;20.60;99.90;;;;;;5001010;28;20558;-76
2022/10/28 00:29:40;;;;;;;14.68;5.18;;;20.60;99.90;;;;;;5009945;28;20523;-76
2022/10/28 00:32:06;;;;;;;15.23;4.72;;;20.60;99.90;;;;;;4999801;28;20101;-75
2022/10/28 00:34:32;;;;;;;14.80;4.20;;;20.60;99.90;;;;;;5015813;28;20396;-76
2022/10/28 00:36:57;;;;;;;13.07;4.50;;;20.60;99.90;;;;;;5001955;28;20070;-75
2022/10/28 00:39:24;;;;;;;16.77;4.55;;;20.60;99.90;;;;;;5006952;28;20134;-75
2022/10/28 00:41:53;;;;;;;9.75;5.03;;;20.60;99.90;;;;;;4999064;28;20033;-76
2022/10/28 00:44:41;;;;;;;13.90;4.45;;;20.60;99.90;;;;;;5003947;28;20022;-75
2022/10/28 00:47:21;;;;;;;11.70;4.35;;;20.60;99.90;;;;;;5002714;28;20038;-76
2022/10/28 00:49:51;;;;;;;16.55;4.72;;;20.60;99.90;;;;;;5002056;28;20738;-75
2022/10/28 00:52:22;;;;;;;12.98;5.00;;;20.50;99.90;;;;;;5016131;28;20039;-75
2022/10/28 00:54:50;;;;;;;13.35;4.80;;;20.50;99.90;;;;;;5006532;28;20121;-75
2022/10/28 00:57:24;;;;;;;15.32;4.38;;;20.50;99.90;;;;;;5009818;28;20105;-75
2022/10/28 00:59:53;;;;;;;14.27;4.40;;;20.50;99.90;;;;;;4996572;28;20169;-75
2022/10/28 01:02:21;;;;;;;18.17;4.93;;;20.50;99.90;;;;;;5008039;28;20023;-75
2022/10/28 01:04:47;;;;;;;12.85;4.63;;;20.50;99.90;;;;;;5008347;28;20463;-75
2022/10/28 01:07:14;;;;;;;12.77;4.88;;;20.40;99.90;;;;;;5001492;28;20041;-74
2022/10/28 01:09:40;;;;;;;17.15;4.80;;;20.40;99.90;;;;;;5000602;28;20018;-75
2022/10/28 01:12:15;;;;;;;19.15;5.32;;;20.30;99.90;;;;;;5005390;28;20041;-75
2022/10/28 01:15:03;;;;;;;21.48;4.45;;;20.30;99.90;;;;;;5003680;28;20021;-74
2022/10/28 01:17:43;;;;;;;12.10;4.93;;;20.20;99.90;;;;;;4999768;28;20026;-75
2022/10/28 01:20:18;;;;;;;21.75;4.85;;;20.10;99.90;;;;;;5001851;28;20030;-76
2022/10/28 01:22:58;;;;;;;18.52;5.35;;;20.10;99.90;;;;;;5015035;28;20869;-76
2022/10/28 01:25:27;;;;;;;13.13;4.65;;;20.00;99.90;;;;;;5003691;28;20030;-75
2022/10/28 01:28:12;;;;;;;12.20;5.03;;;20.00;99.90;;;;;;5000429;28;20440;-75
2022/10/28 01:30:58;;;;;;;14.25;5.10;;;19.90;99.90;;;;;;4999445;28;20058;-75
2022/10/28 01:33:35;;;;;;;8.07;4.40;;;19.80;99.90;;;;;;4985765;28;20034;-75
2022/10/28 01:36:23;;;;;;;12.77;5.15;;;19.80;99.90;;;;;;5007625;28;20500;-75
2022/10/28 01:39:01;;;;;;;18.20;4.95;;;19.90;99.90;;;;;;5005112;28;20031;-75
2022/10/28 01:41:39;;;;;;;13.68;5.25;;;19.80;99.90;;;;;;5005937;28;20034;-75
2022/10/28 01:44:05;;;;;;;14.23;5.05;;;19.80;99.90;;;;;;5014460;28;20084;-75
2022/10/28 01:46:36;;;;;;;16.83;4.72;;;19.70;99.90;;;;;;5006736;28;20095;-75
2022/10/28 01:49:12;;;;;;;17.48;5.57;;;19.70;99.90;;;;;;5007047;28;20184;-75
2022/10/28 01:51:44;;;;;;;13.30;4.90;;;19.60;99.90;;;;;;5011581;28;20029;-75
2022/10/28 01:54:13;;;;;;;10.82;5.03;;;19.60;99.90;;;;;;5006195;28;20035;-75
2022/10/28 01:56:41;;;;;;;16.58;4.90;;;19.50;99.90;;;;;;5006716;28;20438;-75
2022/10/28 01:59:10;;;;;;;14.93;4.43;;;19.50;99.90;;;;;;5001944;28;20097;-75
2022/10/28 02:01:39;;;;;;;20.33;5.05;;;19.40;99.90;;;;;;5001310;28;20031;-74
2022/10/28 02:04:04;;;;;;;18.45;4.93;;;19.50;99.90;;;;;;5011660;28;20030;-75
2022/10/28 02:06:33;;;;;;;16.80;4.82;;;19.50;99.90;;;;;;5016687;28;20482;-75
2022/10/28 02:09:23;;;;;;;11.30;5.30;;;19.50;99.90;;;;;;5004195;28;20132;-74
2022/10/28 02:12:05;;;;;;;14.48;4.90;;;19.50;99.90;;;;;;5008442;28;20024;-74
2022/10/28 02:14:50;;;;;;;15.90;4.90;;;19.40;99.90;;;;;;5006001;28;20049;-75
2022/10/28 02:17:22;;;;;;;20.83;5.00;;;19.30;99.90;;;;;;5005671;28;20096;-75
2022/10/28 02:20:08;;;;;;;15.10;5.22;;;19.30;99.90;;;;;;5009121;28;20036;-75
2022/10/28 02:22:51;;;;;;;16.15;5.13;;;19.20;99.90;;;;;;5005679;28;20033;-75
2022/10/28 02:25:34;;;;;;;18.52;4.55;;;19.20;99.90;;;;;;5007900;28;20025;-73
2022/10/28 02:28:08;;;;;;;10.77;4.72;;;19.20;99.90;;;;;;5002550;28;20038;-74
2022/10/28 02:31:14;;;;;;;10.85;4.65;;;19.20;99.90;;;;;;5005190;28;20034;-73
2022/10/28 02:33:47;;;;;;;13.95;4.72;;;19.20;99.90;;;;;;5003603;28;20041;-73
2022/10/28 02:36:17;;;;;;;20.73;5.15;;;19.20;99.90;;;;;;5007076;28;20067;-73
2022/10/28 02:38:49;;;;;;;12.13;5.03;;;19.20;99.90;;;;;;5002978;28;20027;-73
2022/10/28 02:41:27;;;;;;;18.50;4.90;;;19.20;99.90;;;;;;5002494;28;20026;-73
2022/10/28 02:43:57;;;;;;;15.77;5.03;;;19.20;99.90;;;;;;5005361;28;20034;-72
2022/10/28 02:46:29;;;;;;;17.63;5.00;;;19.20;99.90;;;;;;5003502;28;20049;-74
2022/10/28 02:49:06;;;;;;;19.30;5.28;;;19.30;99.90;;;;;;5001794;28;20081;-73
2022/10/28 02:51:52;;;;;;;14.82;4.88;;;19.20;99.90;;;;;;5004935;28;20087;-73
2022/10/28 02:54:24;;;;;;;12.95;5.15;;;19.20;99.90;;;;;;5004376;28;20027;-73
2022/10/28 02:57:25;;;;;;;22.15;6.85;;;19.20;99.90;;;;;;5005158;28;20026;-73
2022/10/28 02:59:57;;;;;;;15.43;5.20;;;19.20;99.90;;;;;;5003210;28;20112;-73
2022/10/28 03:02:23;;;;;;;26.63;5.47;;;19.20;99.90;;;;;;5004352;28;20022;-73
2022/10/28 03:04:49;;;;;;;25.70;5.72;;;19.20;99.90;;;;;;5011816;28;20022;-73
2022/10/28 03:07:14;;;;;;;19.92;5.72;;;19.20;99.90;;;;;;5005013;28;20030;-74
2022/10/28 03:09:40;;;;;;;20.58;5.45;;;19.10;99.90;;;;;;5004002;28;20132;-74
2022/10/28 03:12:06;;;;;;;19.67;5.88;;;19.10;99.90;;;;;;4999839;28;20442;-73
2022/10/28 03:14:31;;;;;;;17.80;4.88;;;19.10;99.90;;;;;;5007473;28;20026;-73
2022/10/28 03:16:59;;;;;;;15.68;5.13;;;19.10;99.90;;;;;;5006984;28;20030;-73
2022/10/28 03:19:25;;;;;;;22.73;5.57;;;19.10;99.90;;;;;;5006671;28;20045;-74
2022/10/28 03:21:50;;;;;;;20.63;5.95;;;19.10;99.90;;;;;;5007143;28;20058;-73
2022/10/28 03:24:16;;;;;;;19.33;5.25;;;19.00;99.90;;;;;;5000614;28;20042;-73
2022/10/28 03:26:42;;;;;;;20.30;5.88;;;19.00;99.90;;;;;;5005259;28;20026;-73
2022/10/28 03:29:07;;;;;;;27.33;5.38;;;19.00;99.90;;;;;;5004687;28;20022;-73
2022/10/28 03:31:35;;;;;;;18.85;5.55;;;19.00;99.90;;;;;;5002062;28;20023;-73
2022/10/28 03:34:03;;;;;;;13.07;4.47;;;19.00;99.90;;;;;;5004718;28;20029;-73
2022/10/28 03:36:28;;;;;;;24.73;5.97;;;19.00;99.90;;;;;;5001730;28;20479;-73
2022/10/28 03:38:54;;;;;;;13.75;5.20;;;19.00;99.90;;;;;;5002865;28;20042;-73
2022/10/28 03:41:20;;;;;;;23.23;5.30;;;19.00;99.90;;;;;;5019506;28;20054;-73
2022/10/28 03:43:45;;;;;;;21.23;5.60;;;19.00;99.90;;;;;;5006548;28;20023;-72
2022/10/28 03:46:11;;;;;;;17.55;5.15;;;18.90;99.90;;;;;;5003159;28;20044;-73
2022/10/28 03:48:36;;;;;;;16.42;4.72;;;18.90;99.90;;;;;;5004966;28;20034;-73
2022/10/28 03:51:04;;;;;;;16.50;5.78;;;18.90;99.90;;;;;;5005499;28;20088;-74
2022/10/28 03:53:30;;;;;;;16.17;4.75;;;18.90;99.90;;;;;;5015511;28;20030;-74
2022/10/28 03:55:57;;;;;;;12.73;4.63;;;18.90;99.90;;;;;;5015428;28;20026;-73
2022/10/28 03:58:26;;;;;;;23.65;5.10;;;18.90;99.90;;;;;;5004076;28;20099;-73
2022/10/28 04:00:53;;;;;;;19.25;5.68;;;18.80;99.90;;;;;;4996871;28;20083;-73
2022/10/28 04:03:20;;;;;;;23.98;5.90;;;18.80;99.90;;;;;;5002516;28;20014;-72
2022/10/28 04:05:48;;;;;;;17.20;5.75;;;18.80;99.90;;;;;;5004467;28;20107;-73
2022/10/28 04:08:15;;;;;;;17.80;5.50;;;18.80;99.90;;;;;;5000362;28;20123;-74
2022/10/28 04:10:42;;;;;;;13.90;4.90;;;18.70;99.90;;;;;;5003338;28;20037;-72
2022/10/28 04:13:09;;;;;;;20.17;5.57;;;18.70;99.90;;;;;;5004958;28;20428;-73
2022/10/28 04:15:37;;;;;;;15.30;5.28;;;18.70;99.90;;;;;;5008532;28;20485;-72
2022/10/28 04:18:03;;;;;;;19.15;5.78;;;18.70;99.90;;;;;;5001946;28;20367;-72
2022/10/28 04:20:31;;;;;;;21.52;5.63;;;18.60;99.90;;;;;;5006212;28;20095;-73
2022/10/28 04:22:57;;;;;;;18.48;5.93;;;18.70;99.90;;;;;;5006742;28;20175;-72
2022/10/28 04:25:26;;;;;;;27.33;7.18;;;18.70;99.90;;;;;;5004683;28;20100;-73
2022/10/28 04:27:52;;;;;;;18.05;6.10;;;18.60;99.90;;;;;;5004236;28;20027;-72
2022/10/28 04:30:18;;;;;;;16.63;5.57;;;18.50;99.90;;;;;;5006817;28;20022;-72
2022/10/28 04:32:46;;;;;;;18.13;6.00;;;18.50;99.90;;;;;;5000622;28;20037;-75
2022/10/28 04:35:12;;;;;;;12.30;5.40;;;18.50;99.90;;;;;;5002397;28;20054;-74
2022/10/28 04:37:39;;;;;;;15.48;5.35;;;18.50;99.90;;;;;;4999631;28;20023;-74
2022/10/28 04:40:06;;;;;;;25.77;5.88;;;18.40;99.90;;;;;;5001243;28;20033;-72
2022/10/28 04:42:32;;;;;;;17.17;5.65;;;18.40;99.90;;;;;;4998508;28;20042;-72
2022/10/28 04:45:00;;;;;;;21.15;5.63;;;18.40;99.90;;;;;;5008094;28;20026;-73
2022/10/28 04:47:25;;;;;;;26.63;6.25;;;18.40;99.90;;;;;;5005028;28;20030;-72
2022/10/28 04:49:51;;;;;;;21.10;4.97;;;18.40;99.90;;;;;;5009972;28;20033;-72
2022/10/28 04:52:17;;;;;;;21.55;5.63;;;18.40;99.90;;;;;;5006819;28;20052;-72
2022/10/28 04:54:43;;;;;;;21.50;5.43;;;18.40;99.90;;;;;;4999028;28;20448;-75
2022/10/28 04:57:08;;;;;;;14.73;5.60;;;18.40;99.90;;;;;;5004660;28;20201;-72
2022/10/28 04:59:34;;;;;;;23.27;5.47;;;18.40;99.90;;;;;;5006926;28;20136;-74
2022/10/28 05:01:59;;;;;;;20.42;5.68;;;18.40;99.90;;;;;;5007037;28;20399;-75
2022/10/28 05:04:25;;;;;;;15.43;6.25;;;18.40;99.90;;;;;;5003505;28;20022;-73
2022/10/28 05:06:51;;;;;;;18.70;5.70;;;18.40;99.90;;;;;;5006531;28;20060;-73
2022/10/28 05:09:16;;;;;;;14.52;5.45;;;18.40;99.90;;;;;;5000900;28;20080;-73
2022/10/28 05:11:42;;;;;;;16.70;5.60;;;18.30;99.90;;;;;;5003663;28;20018;-74
2022/10/28 05:14:07;;;;;;;12.57;5.22;;;18.30;99.90;;;;;;4999769;28;20030;-74
2022/10/28 05:16:35;;;;;;;14.35;5.78;;;18.30;99.90;;;;;;5001345;28;20102;-72
2022/10/28 05:19:03;;;;;;;21.55;5.38;;;18.30;99.90;;;;;;5010305;28;20076;-72
2022/10/28 05:21:31;;;;;;;23.90;5.57;;;18.20;99.90;;;;;;5005481;28;20447;-72
2022/10/28 05:23:57;;;;;;;18.83;5.72;;;18.30;99.90;;;;;;5000428;28;20050;-71
2022/10/28 05:26:27;;;;;;;14.88;4.95;;;18.30;99.90;;;;;;4997264;28;20018;-73
2022/10/28 05:28:55;;;;;;;20.73;5.03;;;18.30;99.90;;;;;;5003429;28;20028;-72
2022/10/28 05:31:21;;;;;;;19.50;4.97;;;18.30;99.90;;;;;;4998540;28;20032;-72
2022/10/28 05:33:46;;;;;;;20.45;5.55;;;18.30;99.90;;;;;;4998546;28;20027;-72
2022/10/28 05:36:12;;;;;;;22.05;4.55;;;18.40;99.90;;;;;;5001151;28;20065;-72
2022/10/28 05:38:44;;;;;;;12.10;4.97;;;18.40;99.90;;;;;;5005134;28;20705;-72
2022/10/28 05:41:12;;;;;;;14.48;4.97;;;18.40;99.90;;;;;;5004045;28;20181;-73
2022/10/28 05:43:39;;;;;;;14.65;5.97;;;18.30;99.90;;;;;;5001645;28;20022;-72
2022/10/28 05:46:08;;;;;;;11.70;4.30;;;18.30;99.90;;;;;;4997454;28;20054;-72
2022/10/28 05:48:33;;;;;;;11.30;5.18;;;18.40;99.90;;;;;;5000999;28;20026;-71
2022/10/28 05:50:59;;;;;;;13.57;4.88;;;18.30;99.90;;;;;;5017291;28;20072;-72
2022/10/28 05:53:24;;;;;;;17.05;4.82;;;18.30;99.90;;;;;;5002230;28;20172;-73
2022/10/28 05:55:50;;;;;;;17.27;5.20;;;18.30;99.90;;;;;;5004059;28;20481;-72
2022/10/28 05:58:18;;;;;;;21.85;4.97;;;18.40;99.90;;;;;;4998175;28;20034;-73
2022/10/28 06:00:43;;;;;;;19.67;5.43;;;18.30;99.90;;;;;;5008378;28;20034;-73
2022/10/28 06:03:11;;;;;;;13.85;4.70;;;18.40;99.90;;;;;;5011773;28;20351;-74
2022/10/28 06:05:41;;;;;;;13.20;4.63;;;18.40;99.90;;;;;;4997113;28;20073;-72
2022/10/28 06:08:07;;;;;;;12.15;4.85;;;18.30;99.90;;;;;;4995442;28;20053;-73
2022/10/28 06:10:33;;;;;;;15.05;5.28;;;18.40;99.90;;;;;;5002318;28;20062;-74
2022/10/28 06:13:01;;;;;;;27.83;4.95;;;18.30;99.90;;;;;;4997552;28;20038;-71
2022/10/28 06:15:27;;;;;;;22.08;5.25;;;18.30;99.90;;;;;;5001369;28;20034;-72
2022/10/28 06:17:52;;;;;;;20.95;4.60;;;18.40;99.90;;;;;;4995205;28;20083;-72
2022/10/28 06:20:21;;;;;;;16.65;5.47;;;18.30;99.90;;;;;;5003191;28;20026;-72
2022/10/28 06:22:51;;;;;;;18.00;5.25;;;18.40;99.90;;;;;;5009128;28;20041;-72
2022/10/28 06:25:17;;;;;;;15.40;5.53;;;18.40;99.90;;;;;;5002463;28;20014;-72
2022/10/28 06:27:43;;;;;;;17.23;5.25;;;18.30;99.90;;;;;;4999762;28;20077;-71
2022/10/28 06:30:10;;;;;;;169.38;65.10;;;18.40;99.90;;;;;;5000597;28;20338;-70
2022/10/28 06:32:35;;;;;;;442.25;180.65;;;18.30;99.90;;;;;;5003877;28;20033;-74
2022/10/28 06:35:01;;;;;;;16.30;5.15;;;18.40;99.90;;;;;;5006716;28;20033;-71
2022/10/28 06:37:26;;;;;;;21.20;5.22;;;18.40;99.90;;;;;;4998864;28;20034;-71
2022/10/28 06:39:53;;;;;;;22.73;5.30;;;18.40;99.90;;;;;;5002740;28;20402;-72
2022/10/28 06:42:18;;;;;;;16.50;5.03;;;18.40;99.90;;;;;;5007818;28;20041;-72
2022/10/28 06:44:44;;;;;;;15.57;5.30;;;18.40;99.90;;;;;;5007522;28;20106;-73
2022/10/28 06:47:12;;;;;;;15.07;5.45;;;18.50;99.90;;;;;;4999310;28;20085;-72
2022/10/28 06:49:45;;;;;;;14.70;5.40;;;18.50;99.90;;;;;;5002234;28;20066;-76
2022/10/28 06:52:13;;;;;;;237.52;87.07;;;18.50;99.90;;;;;;5002734;28;20116;-72
2022/10/28 06:54:42;;;;;;;48.65;16.95;;;18.50;99.90;;;;;;4999355;28;20095;-71
2022/10/28 06:57:09;;;;;;;14.15;5.68;;;18.60;99.90;;;;;;5003332;28;20078;-71
2022/10/28 06:59:39;;;;;;;14.90;4.93;;;18.60;99.90;;;;;;5013806;28;20053;-72
2022/10/28 07:02:05;;;;;;;20.17;5.30;;;18.60;99.90;;;;;;5009115;28;20039;-73
2022/10/28 07:04:32;;;;;;;14.77;5.18;;;18.50;99.90;;;;;;5007431;28;20018;-72
2022/10/28 07:06:58;;;;;;;18.35;4.97;;;18.60;99.90;;;;;;5020663;28;20026;-74
2022/10/28 07:09:24;;;;;;;26.80;5.53;;;18.60;99.90;;;;;;5006635;28;20026;-72
2022/10/28 07:11:52;;;;;;;20.77;5.22;;;18.70;99.90;;;;;;5003565;28;20092;-72
2022/10/28 07:14:20;;;;;;;20.35;5.10;;;18.80;99.90;;;;;;5012589;28;20033;-72
2022/10/28 07:16:45;;;;;;;25.58;5.90;;;18.90;99.90;;;;;;5003577;28;20030;-72
2022/10/28 07:19:11;;;;;;;17.80;5.20;;;18.90;99.90;;;;;;4999656;28;20023;-71
2022/10/28 07:21:39;;;;;;;9.23;4.57;;;18.90;99.90;;;;;;5002210;28;20025;-71
2022/10/28 07:24:05;;;;;;;14.00;5.35;;;19.00;99.90;;;;;;5001661;28;20117;-72
2022/10/28 07:26:30;;;;;;;13.70;4.72;;;19.00;99.90;;;;;;5001335;28;20026;-71
2022/10/28 07:28:56;;;;;;;303.48;133.90;;;19.00;99.90;;;;;;5001335;28;20038;-71
2022/10/28 07:31:22;;;;;;;21.80;5.07;;;19.10;99.90;;;;;;5002712;28;20176;-71
2022/10/28 07:33:52;;;;;;;17.13;4.80;;;19.10;99.90;;;;;;5005750;28;20026;-71
2022/10/28 07:36:17;;;;;;;21.35;4.97;;;19.20;99.90;;;;;;5001583;28;20101;-72
2022/10/28 07:38:45;;;;;;;20.45;5.38;;;19.30;99.90;;;;;;5001443;28;20030;-71
2022/10/28 07:41:13;;;;;;;17.13;5.22;;;19.20;99.90;;;;;;5003300;28;20061;-74
2022/10/28 07:43:39;;;;;;;15.07;5.90;;;19.30;99.90;;;;;;5001212;28;20050;-73
2022/10/28 07:46:06;;;;;;;12.93;4.80;;;19.30;99.90;;;;;;5007149;28;20044;-74
2022/10/28 07:48:33;;;;;;;15.80;4.78;;;19.40;99.90;;;;;;5008278;28;20033;-74
2022/10/28 07:51:02;;;;;;;14.05;5.07;;;19.50;99.90;;;;;;5002105;28;20486;-72
2022/10/28 07:53:28;;;;;;;13.95;4.95;;;19.60;99.90;;;;;;4996172;28;20022;-74
2022/10/28 07:56:08;;;;;;;14.90;5.65;;;19.60;99.90;;;;;;5001461;28;20129;-74
2022/10/28 07:58:35;;;;;;;272.20;110.45;;;19.60;99.90;;;;;;4997789;28;20570;-73
2022/10/28 08:01:04;;;;;;;43.05;14.98;;;19.70;99.90;;;;;;5002154;28;20066;-74
2022/10/28 08:03:30;;;;;;;15.60;4.55;;;19.80;99.90;;;;;;5002641;28;20049;-73
2022/10/28 08:06:01;;;;;;;13.98;4.93;;;19.80;99.90;;;;;;5000828;28;20030;-72
2022/10/28 08:08:28;;;;;;;16.35;5.13;;;19.90;99.90;;;;;;5001177;28;20050;-72
2022/10/28 08:10:54;;;;;;;17.25;5.80;;;20.00;99.90;;;;;;5003183;28;20050;-72
2022/10/28 08:13:22;;;;;;;15.10;5.80;;;20.00;99.90;;;;;;4999673;28;20034;-72
2022/10/28 08:15:54;;;;;;;17.25;5.97;;;20.10;99.90;;;;;;4997008;28;20125;-72
2022/10/28 08:18:23;;;;;;;15.43;5.67;;;20.30;99.90;;;;;;4997543;28;20104;-72
2022/10/28 08:20:48;;;;;;;24.83;5.90;;;20.40;99.90;;;;;;5006791;28;20291;-72
2022/10/28 08:23:14;;;;;;;20.25;5.78;;;20.50;99.90;;;;;;4999444;28;20023;-71
2022/10/28 08:25:50;;;;;;;15.63;5.22;;;20.50;99.90;;;;;;4995819;28;20037;-72
2022/10/28 08:28:16;;;;;;;21.02;6.10;;;20.60;99.90;;;;;;4999394;28;20354;-73
2022/10/28 08:30:43;;;;;;;18.10;5.38;;;20.70;99.90;;;;;;4999185;28;20030;-76
2022/10/28 08:33:11;;;;;;;23.08;5.68;;;20.80;99.90;;;;;;5008480;28;20040;-72
2022/10/28 08:35:39;;;;;;;19.08;6.80;;;20.80;99.90;;;;;;4999617;28;20717;-72
2022/10/28 08:38:07;;;;;;;15.77;5.80;;;21.00;99.90;;;;;;5000433;28;20030;-73
2022/10/28 08:41:04;;;;;;;22.52;6.55;;;21.00;99.90;;;;;;5004367;28;20026;-73
2022/10/28 08:44:00;;;;;;;19.20;6.40;;;21.10;99.90;;;;;;5011872;28;20344;-73
2022/10/28 08:46:50;;;;;;;29.48;6.15;;;21.40;99.90;;;;;;5003046;28;20164;-74
2022/10/28 08:49:20;;;;;;;23.35;5.95;;;21.50;99.90;;;;;;5015010;28;20037;-75
2022/10/28 08:52:00;;;;;;;26.05;6.78;;;21.70;99.90;;;;;;4999360;28;20030;-75
2022/10/28 08:54:39;;;;;;;21.73;6.82;;;21.80;99.90;;;;;;5003334;28;20018;-75
2022/10/28 08:57:15;;;;;;;25.92;6.82;;;21.90;99.90;;;;;;5000157;28;20542;-76
2022/10/28 08:59:43;;;;;;;15.88;6.53;;;22.10;99.90;;;;;;5005130;28;20022;-74
2022/10/28 09:02:29;;;;;;;18.02;5.80;;;22.10;99.90;;;;;;5003938;28;20030;-74
2022/10/28 09:05:16;;;;;;;17.98;6.32;;;22.20;99.90;;;;;;5001741;28;20034;-73
2022/10/28 09:07:44;;;;;;;385.75;175.18;;;22.40;99.90;;;;;;5006941;28;20034;-74
2022/10/28 09:10:16;;;;;;;38.13;12.07;;;22.60;99.90;;;;;;4993739;28;20030;-75
2022/10/28 09:13:08;;;;;;;31.27;6.53;;;22.70;99.90;;;;;;5000905;28;20462;-74
2022/10/28 09:16:08;;;;;;;14.43;6.25;;;22.80;99.90;;;;;;5014420;28;20038;-75
2022/10/28 09:18:51;;;;;;;19.38;6.32;;;23.00;99.90;;;;;;4999459;28;20026;-74
2022/10/28 09:21:26;;;;;;;11.45;5.60;;;23.00;99.90;;;;;;5017634;28;20064;-75
2022/10/28 09:23:57;;;;;;;14.25;5.18;;;23.00;99.90;;;;;;5019430;28;20026;-73
2022/10/28 09:26:40;;;;;;;19.67;6.13;;;22.80;99.90;;;;;;5002073;28;20472;-75
2022/10/28 09:30:02;;;;;;;16.23;5.10;;;22.90;99.90;;;;;;5015105;28;20370;-73
2022/10/28 09:32:40;;;;;;;24.73;5.05;;;22.90;99.90;;;;;;4989646;28;20447;-74
2022/10/28 09:35:12;;;;;;;16.85;4.85;;;23.00;99.90;;;;;;4988567;28;20049;-74
2022/10/28 09:37:43;;;;;;;11.38;4.60;;;22.90;99.90;;;;;;4991092;28;20077;-74
2022/10/28 09:40:21;;;;;;;24.40;5.00;;;22.90;99.90;;;;;;4988142;28;20605;-74
2022/10/28 09:43:08;;;;;;;26.00;5.55;;;22.90;99.90;;;;;;4986854;28;20042;-76
2022/10/28 09:45:43;;;;;;;13.63;4.57;;;23.00;99.90;;;;;;4971113;28;20452;-74
2022/10/28 09:48:35;;;;;;;23.70;4.80;;;23.10;99.90;;;;;;4986561;28;20042;-73
2022/10/28 09:51:01;;;;;;;13.93;5.05;;;23.40;99.90;;;;;;4986560;28;20554;-75
2022/10/28 09:53:37;;;;;;;120.95;51.55;;;24.00;99.10;;;;;;4986980;28;20050;-73
2022/10/28 09:56:05;;;;;;;20.50;4.47;;;24.30;98.60;;;;;;4974292;28;20061;-74
2022/10/28 09:58:32;;;;;;;21.15;5.53;;;24.50;97.90;;;;;;4991955;28;20133;-75
2022/10/28 10:00:58;;;;;;;15.55;4.88;;;24.60;97.90;;;;;;4990901;28;20041;-73
2022/10/28 10:03:24;;;;;;;18.95;4.47;;;24.50;97.40;;;;;;4997423;28;20042;-72
2022/10/28 10:05:55;;;;;;;15.40;4.38;;;24.70;97.10;;;;;;5000423;28;20066;-73
2022/10/28 10:08:25;;;;;;;15.33;5.43;;;24.50;96.70;;;;;;5002454;28;20030;-72
2022/10/28 10:10:59;;;;;;;20.92;4.45;;;24.30;97.20;;;;;;4998998;28;20037;-75
2022/10/28 10:13:33;;;;;;;18.88;5.13;;;24.20;97.00;;;;;;5003091;28;20096;-73
2022/10/28 10:16:06;;;;;;;13.73;4.35;;;24.20;97.20;;;;;;4998337;28;20050;-70
2022/10/28 10:18:32;;;;;;;;;;;23.90;97.20;;;;;;5019421;28;20030;-72
2022/10/28 10:20:58;;;;;;;12.38;4.65;;;23.80;97.20;;;;;;4998334;28;20427;-71
2022/10/28 10:23:29;;;;;;;22.00;4.88;;;24.00;97.50;;;;;;5005923;28;20026;-74
2022/10/28 10:26:01;;;;;;;14.93;4.82;;;24.40;96.90;;;;;;5001708;28;20034;-74
2022/10/28 10:28:27;;;;;;;24.40;4.65;;;24.50;96.60;;;;;;5003414;28;20049;-72
2022/10/28 10:30:59;;;;;;;19.73;4.97;;;24.70;95.80;;;;;;5003232;28;20053;-73
2022/10/28 10:33:31;;;;;;;19.58;4.72;;;24.90;95.40;;;;;;5005680;28;20026;-72
2022/10/28 10:35:59;;;;;;;;;;;25.50;94.80;;;;;;5003190;28;20021;-72
2022/10/28 10:38:26;;;;;;;22.95;5.28;;;25.80;93.70;;;;;;5001350;28;19913;-73
2022/10/28 10:40:52;;;;;;;21.48;5.38;;;25.70;93.30;;;;;;5001973;28;20041;-72
2022/10/28 10:43:24;;;;;;;17.08;4.72;;;25.90;92.80;;;;;;5002018;28;20030;-73
2022/10/28 10:46:02;;;;;;;25.77;7.45;;;26.30;93.30;;;;;;5000855;28;20405;-71
2022/10/28 10:48:37;;;;;;;16.95;4.50;;;26.40;91.90;;;;;;5001033;28;20041;-73
2022/10/28 10:51:28;;;;;;;15.02;4.70;;;26.00;91.90;;;;;;5001425;28;20018;-74
2022/10/28 10:53:59;;;;;;;20.17;5.35;;;25.80;92.10;;;;;;5003291;28;20838;-72
2022/10/28 10:56:31;;;;;;;22.23;5.32;;;25.30;92.90;;;;;;5012536;28;20062;-72
2022/10/28 10:59:03;;;;;;;18.30;5.18;;;25.50;92.30;;;;;;5009984;28;20034;-74
2022/10/28 11:01:35;;;;;;;19.38;4.50;;;25.70;92.20;;;;;;5002344;28;20030;-72
2022/10/28 11:04:05;;;;;;;16.45;4.50;;;25.70;92.10;;;;;;5004697;28;20025;-75
2022/10/28 11:06:39;;;;;;;15.73;5.13;;;25.70;91.90;;;;;;5003997;28;20029;-74
2022/10/28 11:09:27;;;;;;;28.85;5.95;;;25.60;91.50;;;;;;5003145;28;20026;-72
2022/10/28 11:11:56;;;;;;;13.30;4.47;;;25.80;92.10;;;;;;4997436;28;20459;-73
2022/10/28 11:14:28;;;;;;;16.63;4.57;;;26.00;91.30;;;;;;5007620;28;20113;-72
2022/10/28 11:16:59;;;;;;;18.67;4.97;;;26.10;91.50;;;;;;5004588;28;20017;-74
2022/10/28 11:19:27;;;;;;;23.55;5.70;;;26.30;91.50;;;;;;4998486;28;20505;-70
2022/10/28 11:22:31;;;;;;;18.75;5.03;;;26.50;90.50;;;;;;4999292;28;20033;-72
2022/10/28 11:24:59;;;;;;;12.98;5.03;;;26.20;90.40;;;;;;4961635;28;20042;-71
2022/10/28 11:27:43;;;;;;;19.67;5.40;;;26.40;90.70;;;;;;4994651;28;20042;-72
2022/10/28 11:30:18;;;;;;;23.95;5.55;;;26.30;90.50;;;;;;5013690;28;20045;-72
2022/10/28 11:32:57;;;;;;;16.25;5.07;;;26.20;90.50;;;;;;5002861;28;20113;-71
2022/10/28 11:35:39;;;;;;;22.63;5.18;;;26.70;90.40;;;;;;5000987;28;20105;-72
2022/10/28 11:38:34;;;;;;;24.95;5.30;;;26.80;90.00;;;;;;5000102;28;20034;-73
2022/10/28 11:41:20;;;;;;;18.58;5.68;;;27.00;89.80;;;;;;4999509;28;20113;-72
2022/10/28 11:44:02;;;;;;;59.05;20.73;;;27.10;89.00;;;;;;5000032;28;20029;-73
2022/10/28 11:46:37;;;;;;;27.02;5.18;;;26.70;89.50;;;;;;4999375;28;20030;-73
2022/10/28 11:49:42;;;;;;;18.15;4.90;;;27.20;89.30;;;;;;4999018;28;20030;-73
2022/10/28 11:52:23;;;;;;;18.70;5.20;;;27.20;88.00;;;;;;5006600;28;20129;-72
2022/10/28 11:55:12;;;;;;;20.38;5.32;;;27.30;86.80;;;;;;5002228;28;20058;-72
2022/10/28 11:57:50;;;;;;;24.27;5.63;;;27.40;86.20;;;;;;5003637;28;20026;-74
2022/10/28 12:00:37;;;;;;;16.20;5.28;;;27.20;85.50;;;;;;5005561;28;20026;-73
2022/10/28 12:03:30;;;;;;;25.75;5.00;;;27.00;87.00;;;;;;5001596;28;20031;-71
2022/10/28 12:06:25;;;;;;;21.65;6.47;;;27.20;86.70;;;;;;5001507;28;20033;-73
2022/10/28 12:09:17;;;;;;;78.65;33.17;;;27.10;86.50;;;;;;5000079;28;20048;-69
2022/10/28 12:12:05;;;;;;;21.08;5.10;;;27.40;88.70;;;;;;4995206;28;20415;-73
2022/10/28 12:14:53;;;;;;;19.98;5.47;;;27.50;86.80;;;;;;4997966;28;20088;-73
2022/10/28 12:17:27;;;;;;;22.30;6.40;;;27.50;86.30;;;;;;5017213;28;20031;-72
2022/10/28 12:20:03;;;;;;;21.58;5.68;;;27.30;86.20;;;;;;5000230;28;20512;-72
2022/10/28 12:22:35;;;;;;;17.90;4.95;;;27.20;87.70;;;;;;4998866;28;20351;-73
2022/10/28 12:25:10;;;;;;;16.13;5.23;;;27.30;87.10;;;;;;5004370;28;20021;-73
2022/10/28 12:27:43;;;;;;;21.00;5.60;;;27.20;86.10;;;;;;5003379;28;20276;-73
2022/10/28 12:30:12;;;;;;;18.60;5.10;;;27.40;86.70;;;;;;5021087;28;20022;-74
2022/10/28 12:32:40;;;;;;;24.15;5.28;;;27.40;86.60;;;;;;5001579;28;20340;-73
2022/10/28 12:35:15;;;;;;;14.75;5.13;;;27.60;86.40;;;;;;5018681;28;20612;-74
2022/10/28 12:37:53;;;;;;;21.85;5.28;;;27.80;86.20;;;;;;5004461;28;20033;-71
2022/10/28 12:40:23;;;;;;;19.25;5.03;;;27.80;85.40;;;;;;5001873;28;20098;-72
2022/10/28 12:43:05;;;;;;;20.80;5.45;;;27.30;85.90;;;;;;5009117;28;20091;-73
2022/10/28 12:45:31;;;;;;;16.27;5.07;;;27.30;85.80;;;;;;4999683;28;20482;-71
2022/10/28 12:48:34;;;;;;;51.35;18.33;;;27.30;86.00;;;;;;5004715;28;20029;-74
2022/10/28 12:51:13;;;;;;;19.73;4.82;;;27.30;86.10;;;;;;4969457;28;20117;-72
2022/10/28 12:53:45;;;;;;;21.48;5.20;;;27.10;86.20;;;;;;5003437;28;20124;-75
2022/10/28 12:56:47;;;;;;;17.17;5.07;;;27.10;86.30;;;;;;5004996;28;20025;-72
2022/10/28 12:59:23;;;;;;;15.30;5.13;;;27.00;85.30;;;;;;4982679;28;20061;-72